METAR AND TAF INFORMATION
METAR FOR EGPE
ADDS - METARS form results

(2129 UTC 04 March 2021)
Data provider http://aviationweather.gov/metar/data/
 
METAR text: EGPE 042120Z 00000KT 9999 FEW012 SCT022 BKN032 01/M00 Q1034
Conditions at: EGPE (INVERNESS/DALCRO, GB) observed 2120 UTC 04 March 2021
Temperature: 1.0°C (34°F)
Dewpoint: 0.0°C (32°F) [RH = 93%]
Pressure (altimeter): 30.53 inches Hg (1034.0 mb)
Winds: calm
Visibility: 6 or more miles (10+ km)
Ceiling: 3200 feet AGL
Clouds: few clouds at 1200 feet AGL
scattered clouds at 2200 feet AGL
broken clouds at 3200 feet AGL
Weather: no significant weather observed at this time

METAR text: EGPE 042050Z 00000KT 9999 FEW012 SCT022 BKN030 02/00 Q1034
Conditions at: EGPE (INVERNESS/DALCRO, GB) observed 2050 UTC 04 March 2021
Temperature: 2.0°C (36°F)
Dewpoint: 0.0°C (32°F) [RH = 87%]
Pressure (altimeter): 30.53 inches Hg (1034.0 mb)
Winds: calm
Visibility: 6 or more miles (10+ km)
Ceiling: 3000 feet AGL
Clouds: few clouds at 1200 feet AGL
scattered clouds at 2200 feet AGL
broken clouds at 3000 feet AGL
Weather: no significant weather observed at this time

Forecast for: EGPE (INVERNESS/DALCRO, GB)
Text: TAF EGPE 041957Z 0421/0506 03004KT 9999 FEW012 SCT025
Forecast period: 2100 UTC 04 March 2021 to 0600 UTC 05 March 2021
Forecast type: FROM: standard forecast or significant change
Winds: from the NNE (30 degrees) at 5 MPH (4 knots; 2.1 m/s)
Visibility: 6 or more miles (10+ km)
Ceiling: at least 12,000 feet AGL
Clouds: few clouds at 1200 feet AGL
scattered clouds at 2500 feet AGL
Weather: no significant weather forecast for this period

 AIRPORT MAP

 RUNWAY INFORMATION
Runway 05 Runway length 6191 ft Runway width 151 ft
Runway elevation 30 ft Runway displaced threshold 217 ft Runway heading 49
Runway 23 Runway length 6191 ft Runway width 151 ft
Runway elevation 21 ft Runway displaced threshold 0 ft Runway heading 229
Runway 12 Runway length 2297 ft Runway width 59 ft
Runway elevation 31 ft Runway displaced threshold 0 ft Runway heading 110
Runway 30 Runway length 2297 ft Runway width 59 ft
Runway elevation 25 ft Runway displaced threshold 0 ft Runway heading 290

 AIRPORT FREQUENCIES
Type APP Name APP Frequency 122.6 MHZ
Type ATIS Name ATIS Frequency 109.2 MHZ
Type RDR Name RDR Frequency 119.35 MHZ
Type TWR Name TWR Frequency 122.6 MHZ

 AIRPORT NEAR NAVIGATION AIDS
Type VOR-DME Name Inverness Frequency 109200 KHZ
Type NDB Name Inverness Frequency 328 KHZ



Powered by Virtual Airlines Manager [v2.6.2]